createdAt,value
2023-02-28T00:01:33.716Z,3.65
2023-02-28T00:04:00.996Z,3.45
2023-02-28T00:06:28.619Z,3.70
2023-02-28T00:08:56.358Z,3.72
2023-02-28T00:11:23.339Z,3.72
2023-02-28T00:13:50.733Z,3.17
2023-02-28T00:16:20.391Z,3.28
2023-02-28T00:18:48.621Z,3.40
2023-02-28T00:21:16.922Z,3.28
2023-02-28T00:23:43.941Z,3.30
2023-02-28T00:26:10.849Z,4.00
2023-02-28T00:28:37.923Z,4.68
2023-02-28T00:31:05.893Z,4.15
2023-02-28T00:33:32.930Z,3.65
2023-02-28T00:36:04.848Z,3.92
2023-02-28T00:38:31.765Z,4.03
2023-02-28T00:40:59.570Z,4.07
2023-02-28T00:43:26.425Z,3.60
2023-02-28T00:45:53.307Z,3.97
2023-02-28T00:48:20.132Z,4.65
2023-02-28T00:50:50.824Z,3.75
2023-02-28T00:53:17.603Z,4.45
2023-02-28T00:55:44.628Z,5.57
2023-02-28T00:58:11.476Z,4.57
2023-02-28T01:00:38.209Z,4.50
2023-02-28T01:03:04.967Z,4.28
2023-02-28T01:05:31.763Z,4.20
2023-02-28T01:07:58.515Z,4.47
2023-02-28T01:10:26.623Z,4.35
2023-02-28T01:12:53.396Z,4.47
2023-02-28T01:15:20.278Z,3.72
2023-02-28T01:17:47.045Z,3.88
2023-02-28T01:20:14.080Z,4.78
2023-02-28T01:22:41.037Z,4.15
2023-02-28T01:25:08.360Z,3.85
2023-02-28T01:27:35.240Z,4.07
2023-02-28T01:30:02.097Z,4.05
2023-02-28T01:32:28.840Z,3.72
2023-02-28T01:34:55.949Z,4.03
2023-02-28T01:37:22.803Z,3.53
2023-02-28T01:39:49.565Z,3.67
2023-02-28T01:42:16.305Z,4.18
2023-02-28T01:45:20.172Z,3.67
2023-02-28T01:47:49.423Z,4.00
2023-02-28T01:50:20.385Z,3.53
2023-02-28T01:52:49.170Z,3.53
2023-02-28T01:55:19.689Z,3.75
2023-02-28T01:57:56.052Z,3.38
2023-02-28T02:00:27.847Z,3.65
2023-02-28T02:02:59.925Z,3.90
2023-02-28T02:05:31.975Z,3.60
2023-02-28T02:08:05.189Z,3.80
2023-02-28T02:10:45.137Z,3.80
2023-02-28T02:13:30.436Z,3.85
2023-02-28T02:16:35.740Z,3.25
2023-02-28T02:19:32.807Z,2.95
2023-02-28T02:22:48.490Z,3.17
2023-02-28T02:25:34.373Z,3.38
2023-02-28T02:28:15.587Z,3.22
2023-02-28T02:30:48.392Z,3.47
2023-02-28T02:33:41.107Z,3.72
2023-02-28T02:36:15.491Z,3.15
2023-02-28T02:38:48.153Z,3.40
2023-02-28T02:44:21.921Z,3.40
2023-02-28T02:46:51.296Z,3.30
2023-02-28T02:49:31.627Z,3.63
2023-02-28T02:52:04.246Z,4.28
2023-02-28T02:54:36.343Z,3.55
2023-02-28T02:57:09.622Z,2.25
2023-02-28T02:59:39.333Z,3.75
2023-02-28T03:02:11.204Z,3.47
2023-02-28T03:04:44.377Z,4.25
2023-02-28T03:07:11.272Z,3.38
2023-02-28T03:09:38.052Z,3.75
2023-02-28T03:12:07.465Z,4.40
2023-02-28T03:14:59.172Z,4.15
2023-02-28T03:17:48.716Z,4.22
2023-02-28T03:20:42.152Z,4.22
2023-02-28T03:23:15.696Z,4.47
2023-02-28T03:25:55.283Z,3.75
2023-02-28T03:28:30.607Z,4.35
2023-02-28T03:31:00.231Z,4.25
2023-02-28T03:33:45.719Z,4.50
2023-02-28T03:36:17.511Z,4.20
2023-02-28T03:38:56.667Z,4.77
2023-02-28T03:41:28.971Z,4.30
2023-02-28T03:44:02.063Z,4.32
2023-02-28T03:46:35.739Z,4.28
2023-02-28T03:49:10.177Z,4.53
2023-02-28T03:51:38.012Z,4.25
2023-02-28T03:54:14.851Z,3.95
2023-02-28T03:56:54.023Z,4.03
2023-02-28T03:59:38.259Z,4.63
2023-02-28T04:02:05.242Z,4.60
2023-02-28T04:04:32.383Z,4.03
2023-02-28T04:07:10.012Z,3.88
2023-02-28T04:09:36.900Z,4.00
2023-02-28T04:12:03.786Z,4.43
2023-02-28T04:14:30.759Z,4.50
2023-02-28T04:16:57.946Z,3.95
2023-02-28T04:19:24.824Z,3.92
2023-02-28T04:21:53.270Z,4.57
2023-02-28T04:24:23.067Z,4.15
2023-02-28T04:26:52.449Z,4.35
2023-02-28T04:29:30.795Z,4.00
2023-02-28T04:32:01.190Z,4.55
2023-02-28T04:34:29.648Z,4.20
2023-02-28T04:37:11.963Z,3.90
2023-02-28T04:39:39.329Z,4.07
2023-02-28T04:42:06.351Z,4.35
2023-02-28T04:44:33.159Z,5.03
2023-02-28T04:47:00.070Z,4.35
2023-02-28T04:49:27.076Z,4.47
2023-02-28T04:51:54.220Z,4.90
2023-02-28T04:54:21.340Z,4.65
2023-02-28T04:56:50.783Z,4.43
2023-02-28T04:59:18.037Z,4.55
2023-02-28T05:01:48.698Z,4.47
2023-02-28T05:04:15.609Z,4.47
2023-02-28T05:06:42.406Z,4.30
2023-02-28T05:09:09.203Z,5.28
2023-02-28T05:11:36.273Z,7.05
2023-02-28T05:14:08.399Z,6.13
2023-02-28T05:16:35.348Z,6.25
2023-02-28T05:19:02.415Z,6.03
2023-02-28T05:21:37.970Z,6.22
2023-02-28T05:24:07.849Z,6.45
2023-02-28T05:26:41.458Z,5.50
2023-02-28T05:29:08.599Z,5.50
2023-02-28T05:31:35.870Z,7.38
2023-02-28T05:34:05.131Z,6.13
2023-02-28T05:36:32.698Z,5.35
2023-02-28T05:38:59.685Z,5.03
2023-02-28T05:41:27.593Z,5.10
2023-02-28T05:43:54.694Z,5.22
2023-02-28T05:46:21.837Z,5.00
2023-02-28T05:48:49.651Z,4.85
2023-02-28T05:51:17.574Z,5.15
2023-02-28T05:53:44.657Z,4.95
2023-02-28T05:56:11.538Z,5.35
2023-02-28T05:58:38.328Z,4.53
2023-02-28T06:01:21.884Z,5.10
2023-02-28T06:03:48.797Z,4.85
2023-02-28T06:06:15.646Z,4.30
2023-02-28T06:08:44.619Z,4.85
2023-02-28T06:11:11.489Z,5.50
2023-02-28T06:13:38.311Z,4.78
2023-02-28T06:16:05.428Z,4.75
2023-02-28T06:18:32.227Z,5.70
2023-02-28T06:20:59.348Z,4.57
2023-02-28T06:23:26.126Z,5.18
2023-02-28T06:25:54.229Z,4.78
2023-02-28T06:28:21.176Z,4.93
2023-02-28T06:30:48.006Z,5.82
2023-02-28T06:33:14.790Z,4.60
2023-02-28T06:35:45.432Z,4.38
2023-02-28T06:38:12.245Z,4.97
2023-02-28T06:40:39.188Z,4.82
2023-02-28T06:43:06.084Z,4.63
2023-02-28T06:45:32.875Z,4.57
2023-02-28T06:48:01.183Z,4.65
2023-02-28T06:50:30.425Z,5.28
2023-02-28T06:52:57.271Z,4.90
2023-02-28T06:55:24.118Z,4.40
2023-02-28T06:57:51.742Z,5.15
2023-02-28T07:00:18.969Z,4.60
2023-02-28T07:02:45.727Z,4.82
2023-02-28T07:05:12.491Z,5.15
2023-02-28T07:07:41.679Z,5.53
2023-02-28T07:10:09.011Z,4.40
2023-02-28T07:12:37.058Z,4.97
2023-02-28T07:15:05.124Z,4.60
2023-02-28T07:17:31.960Z,4.25
2023-02-28T07:19:58.740Z,4.82
2023-02-28T07:22:26.033Z,4.72
2023-02-28T07:24:52.802Z,4.57
2023-02-28T07:27:24.680Z,4.55
2023-02-28T07:29:51.701Z,4.25
2023-02-28T07:32:19.594Z,4.45
2023-02-28T07:34:46.773Z,4.38
2023-02-28T07:37:13.609Z,5.28
2023-02-28T07:39:43.275Z,5.10
2023-02-28T07:42:12.806Z,5.47
2023-02-28T07:44:41.672Z,5.05
2023-02-28T07:47:10.426Z,4.65
2023-02-28T07:49:37.853Z,4.53
2023-02-28T07:52:09.024Z,4.60
2023-02-28T07:54:36.843Z,4.43
2023-02-28T07:57:06.654Z,4.88
2023-02-28T07:59:33.460Z,4.80
2023-02-28T08:02:00.344Z,4.35
2023-02-28T08:04:27.508Z,4.72
2023-02-28T08:06:54.328Z,4.95
2023-02-28T08:09:21.366Z,4.68
2023-02-28T08:11:48.247Z,4.30
2023-02-28T08:14:15.050Z,3.75
2023-02-28T08:16:41.851Z,4.47
2023-02-28T08:19:08.622Z,4.63
2023-02-28T08:21:35.615Z,4.03
2023-02-28T08:24:02.405Z,4.10
2023-02-28T08:26:29.211Z,4.63
2023-02-28T08:28:57.334Z,4.40
2023-02-28T08:31:24.996Z,3.38
2023-02-28T08:33:53.815Z,3.30
2023-02-28T08:36:21.001Z,3.45
2023-02-28T08:38:47.845Z,3.42
2023-02-28T08:41:14.769Z,3.42
2023-02-28T08:43:41.905Z,3.20
2023-02-28T08:46:12.014Z,2.83
2023-02-28T08:48:39.003Z,3.08
2023-02-28T08:51:10.291Z,3.25
2023-02-28T08:53:38.509Z,3.30
2023-02-28T08:56:08.446Z,2.88
2023-02-28T08:58:35.694Z,3.00
2023-02-28T09:01:08.997Z,3.58
2023-02-28T09:03:36.243Z,3.30
2023-02-28T09:06:03.467Z,2.83
2023-02-28T09:08:32.200Z,3.33
2023-02-28T09:11:02.293Z,3.22
2023-02-28T09:13:30.242Z,2.90
2023-02-28T09:16:00.127Z,3.03
2023-02-28T09:18:27.963Z,3.00
2023-02-28T09:20:54.860Z,3.08
2023-02-28T09:23:21.859Z,2.70
2023-02-28T09:25:51.169Z,2.65
2023-02-28T09:28:18.260Z,2.20
2023-02-28T09:30:51.290Z,2.63
2023-02-28T09:33:19.946Z,2.97
2023-02-28T09:35:46.798Z,2.38
2023-02-28T09:38:13.943Z,2.47
2023-02-28T09:40:58.046Z,2.10
2023-02-28T09:43:32.057Z,2.38
2023-02-28T09:46:15.675Z,2.10
2023-02-28T09:48:46.770Z,2.40
2023-02-28T09:51:25.636Z,3.10
2023-02-28T09:53:56.718Z,2.40
2023-02-28T09:56:39.569Z,2.25
2023-02-28T09:59:21.357Z,2.50
2023-02-28T10:02:00.250Z,2.53
2023-02-28T10:04:45.698Z,2.10
2023-02-28T10:07:23.169Z,2.55
2023-02-28T10:09:55.448Z,2.25
2023-02-28T10:12:23.035Z,2.22
2023-02-28T10:14:53.969Z,2.13
2023-02-28T10:17:29.066Z,1.90
2023-02-28T10:20:20.828Z,2.40
2023-02-28T10:23:08.452Z,1.95
2023-02-28T10:25:37.673Z,2.33
2023-02-28T10:28:13.533Z,2.30
2023-02-28T10:30:48.342Z,2.22
2023-02-28T10:33:25.930Z,2.08
2023-02-28T10:35:54.510Z,1.98
2023-02-28T10:38:25.740Z,2.30
2023-02-28T10:41:03.999Z,2.08
2023-02-28T10:43:30.936Z,2.50
2023-02-28T10:45:59.913Z,2.55
2023-02-28T10:48:26.864Z,2.30
2023-02-28T10:50:58.286Z,2.00
2023-02-28T10:53:28.029Z,2.40
2023-02-28T10:56:10.240Z,2.33
2023-02-28T10:58:55.288Z,2.13
2023-02-28T11:01:26.057Z,2.10
2023-02-28T11:03:54.145Z,2.05
2023-02-28T11:06:32.750Z,2.15
2023-02-28T11:09:01.797Z,2.47
2023-02-28T11:11:32.771Z,2.20
2023-02-28T11:14:06.372Z,2.40
2023-02-28T11:16:36.294Z,2.33
2023-02-28T11:19:05.553Z,2.53
2023-02-28T11:21:41.460Z,2.30
2023-02-28T11:24:24.190Z,2.40
2023-02-28T11:26:51.134Z,1.77
2023-02-28T11:29:24.407Z,2.25
2023-02-28T11:32:10.567Z,2.13
2023-02-28T11:34:39.242Z,2.05
2023-02-28T11:37:14.188Z,2.35
2023-02-28T11:39:46.616Z,2.20
2023-02-28T11:42:23.245Z,2.33
2023-02-28T11:45:20.576Z,2.53
2023-02-28T11:48:00.271Z,2.15
2023-02-28T11:50:58.937Z,2.50
2023-02-28T11:54:08.293Z,2.17
2023-02-28T11:57:04.249Z,2.10
2023-02-28T12:00:04.817Z,2.15
2023-02-28T12:03:10.713Z,2.45
2023-02-28T12:05:53.691Z,2.35
2023-02-28T12:08:21.301Z,2.33
2023-02-28T12:11:07.780Z,2.53
2023-02-28T12:13:55.618Z,2.33
2023-02-28T12:16:35.902Z,2.20
2023-02-28T12:19:23.508Z,2.28
2023-02-28T12:22:02.150Z,2.38
2023-02-28T12:24:50.645Z,2.50
2023-02-28T12:27:21.640Z,2.15
2023-02-28T12:30:08.281Z,2.60
2023-02-28T12:32:40.995Z,2.65
2023-02-28T12:35:14.695Z,2.25
2023-02-28T12:38:01.143Z,2.13
2023-02-28T12:40:35.430Z,2.10
2023-02-28T12:43:15.879Z,2.17
2023-02-28T12:46:19.304Z,2.10
2023-02-28T12:48:59.928Z,2.63
2023-02-28T12:51:35.946Z,2.38
2023-02-28T12:54:12.048Z,2.70
2023-02-28T12:56:54.971Z,2.40
2023-02-28T12:59:49.691Z,2.40
2023-02-28T13:02:22.499Z,2.55
2023-02-28T13:05:25.416Z,2.42
2023-02-28T13:08:08.859Z,2.55
2023-02-28T13:10:57.067Z,2.20
2023-02-28T13:13:33.116Z,2.35
2023-02-28T13:16:07.401Z,2.50
2023-02-28T13:18:48.280Z,2.55
2023-02-28T13:21:48.893Z,2.55
2023-02-28T13:24:36.019Z,2.30
2023-02-28T13:27:03.439Z,2.45
2023-02-28T13:29:39.165Z,2.50
2023-02-28T13:32:09.827Z,2.45
2023-02-28T13:34:38.522Z,2.30
2023-02-28T13:37:25.897Z,2.53
2023-02-28T13:39:57.567Z,2.17
2023-02-28T13:42:45.620Z,2.47
2023-02-28T13:45:12.519Z,2.45
2023-02-28T13:47:52.109Z,2.47
2023-02-28T13:50:25.372Z,2.55
2023-02-28T13:52:57.865Z,2.15
2023-02-28T13:55:43.779Z,2.80
2023-02-28T13:58:49.053Z,2.70
2023-02-28T14:01:16.763Z,2.45
2023-02-28T14:04:05.438Z,2.83
2023-02-28T14:06:38.272Z,4.30
2023-02-28T14:09:06.272Z,2.90
2023-02-28T14:11:45.601Z,2.70
2023-02-28T14:14:37.539Z,2.75
2023-02-28T14:17:25.214Z,2.60
2023-02-28T14:19:54.290Z,2.50
2023-02-28T14:23:01.156Z,2.60
2023-02-28T14:25:56.357Z,2.35
2023-02-28T14:28:24.913Z,2.83
2023-02-28T14:31:01.320Z,2.60
2023-02-28T14:33:45.199Z,2.42
2023-02-28T14:36:22.268Z,2.30
2023-02-28T14:39:07.259Z,3.00
2023-02-28T14:41:40.792Z,2.78
2023-02-28T14:44:28.582Z,2.58
2023-02-28T14:47:05.578Z,2.80
2023-02-28T14:49:44.895Z,2.88
2023-02-28T14:52:24.402Z,3.10
2023-02-28T14:55:01.127Z,2.75
2023-02-28T14:57:33.914Z,3.15
2023-02-28T15:00:11.634Z,2.65
2023-02-28T15:02:39.246Z,2.60
2023-02-28T15:05:18.663Z,3.00
2023-02-28T15:07:46.463Z,3.30
2023-02-28T15:10:18.760Z,2.90
2023-02-28T15:13:01.009Z,3.10
2023-02-28T15:15:46.033Z,2.90
2023-02-28T15:18:30.696Z,2.97
2023-02-28T15:21:29.193Z,3.38
2023-02-28T15:24:10.362Z,3.20
2023-02-28T15:26:40.944Z,3.13
2023-02-28T15:29:21.820Z,3.20
2023-02-28T15:31:58.331Z,3.20
2023-02-28T15:34:43.054Z,3.20
2023-02-28T15:37:33.402Z,3.13
2023-02-28T15:40:15.698Z,3.30
2023-02-28T15:42:45.086Z,3.50
2023-02-28T15:45:51.171Z,3.30
2023-02-28T15:48:32.408Z,2.95
2023-02-28T15:51:17.673Z,3.60
2023-02-28T15:54:08.985Z,3.53
2023-02-28T15:56:58.065Z,3.70
2023-02-28T15:59:29.131Z,3.63
2023-02-28T16:02:16.436Z,2.83
2023-02-28T16:05:30.386Z,4.07
2023-02-28T16:10:28.119Z,4.13
2023-02-28T16:12:57.195Z,3.60
2023-02-28T16:15:32.413Z,3.97
2023-02-28T16:17:59.551Z,4.30
2023-02-28T16:20:29.874Z,4.40
2023-02-28T16:22:57.265Z,4.20
2023-02-28T16:25:37.424Z,4.10
2023-02-28T16:28:05.326Z,3.58
2023-02-28T16:30:34.834Z,3.90
2023-02-28T16:33:01.707Z,4.25
2023-02-28T16:35:28.605Z,4.13
2023-02-28T16:37:55.628Z,3.95
2023-02-28T16:40:26.282Z,4.50
2023-02-28T16:42:56.766Z,4.38
2023-02-28T16:45:26.453Z,4.50
2023-02-28T16:47:53.748Z,4.50
2023-02-28T16:50:23.555Z,4.20
2023-02-28T16:52:53.087Z,3.90
2023-02-28T16:55:20.314Z,4.43
2023-02-28T16:57:55.207Z,4.75
2023-02-28T17:00:22.322Z,4.10
2023-02-28T17:02:49.222Z,3.97
2023-02-28T17:05:16.461Z,4.43
2023-02-28T17:07:43.988Z,4.03
2023-02-28T17:10:27.131Z,3.80
2023-02-28T17:15:32.497Z,3.97
2023-02-28T17:17:59.393Z,4.68
2023-02-28T17:20:27.456Z,4.07
2023-02-28T17:22:55.159Z,4.05
2023-02-28T17:25:22.877Z,4.07
2023-02-28T17:27:52.277Z,4.05
2023-02-28T17:30:25.407Z,4.00
2023-02-28T17:32:52.208Z,3.83
2023-02-28T17:35:19.098Z,4.28
2023-02-28T17:37:46.187Z,4.30
2023-02-28T17:40:31.166Z,3.90
2023-02-28T17:42:58.902Z,3.92
2023-02-28T17:45:25.670Z,4.35
2023-02-28T17:47:55.932Z,4.25
2023-02-28T17:50:23.227Z,4.57
2023-02-28T17:52:51.309Z,3.92
2023-02-28T17:55:20.033Z,4.22
2023-02-28T17:57:47.284Z,4.55
2023-02-28T18:00:18.370Z,4.68
2023-02-28T18:02:45.975Z,4.65
2023-02-28T18:05:12.935Z,5.13
2023-02-28T18:07:40.770Z,5.22
2023-02-28T18:10:14.216Z,5.35
2023-02-28T18:12:41.794Z,6.70
2023-02-28T18:15:09.065Z,6.32
2023-02-28T18:17:35.840Z,6.00
2023-02-28T18:20:02.709Z,5.75
2023-02-28T18:22:29.519Z,6.18
2023-02-28T18:24:56.334Z,5.68
2023-02-28T18:27:23.139Z,6.57
2023-02-28T18:29:51.085Z,5.57
2023-02-28T18:32:23.845Z,5.97
2023-02-28T18:34:50.969Z,6.07
2023-02-28T18:37:18.577Z,6.28
2023-02-28T18:39:45.673Z,6.10
2023-02-28T18:42:13.402Z,6.60
2023-02-28T18:44:40.274Z,7.60
2023-02-28T18:47:07.757Z,8.80
2023-02-28T18:49:35.689Z,6.80
2023-02-28T18:52:02.806Z,7.00
2023-02-28T18:54:30.176Z,6.30
2023-02-28T18:56:57.163Z,6.63
2023-02-28T18:59:24.055Z,6.93
2023-02-28T19:01:50.928Z,6.78
2023-02-28T19:04:18.163Z,6.22
2023-02-28T19:06:45.039Z,7.50
2023-02-28T19:09:12.166Z,7.15
2023-02-28T19:11:39.238Z,7.50
2023-02-28T19:14:06.083Z,7.63
2023-02-28T19:16:33.214Z,7.65
2023-02-28T19:19:00.264Z,7.78
2023-02-28T19:21:27.460Z,8.38
2023-02-28T19:23:54.506Z,8.23
2023-02-28T19:26:23.955Z,8.70
2023-02-28T19:28:51.115Z,8.65
2023-02-28T19:31:20.580Z,9.75
2023-02-28T19:33:47.958Z,11.88
2023-02-28T19:36:15.774Z,13.13
2023-02-28T19:38:44.546Z,13.13
2023-02-28T19:41:13.037Z,16.15
2023-02-28T19:43:40.408Z,17.75
2023-02-28T19:46:09.558Z,14.55
2023-02-28T19:48:36.794Z,16.85
2023-02-28T19:51:12.376Z,14.07
2023-02-28T19:53:41.014Z,13.60
2023-02-28T19:56:08.792Z,14.25
2023-02-28T19:58:36.146Z,13.35
2023-02-28T20:01:11.823Z,13.93
2023-02-28T20:03:38.857Z,13.63
2023-02-28T20:06:09.908Z,13.77
2023-02-28T20:08:37.847Z,13.35
2023-02-28T20:11:07.074Z,13.43
2023-02-28T20:13:35.123Z,13.60
2023-02-28T20:16:06.069Z,15.30
2023-02-28T20:18:34.307Z,14.68
2023-02-28T20:21:01.948Z,15.15
2023-02-28T20:23:29.555Z,16.08
2023-02-28T20:26:00.706Z,17.25
2023-02-28T20:28:27.569Z,17.13
2023-02-28T20:30:54.811Z,17.17
2023-02-28T20:33:22.204Z,18.27
2023-02-28T20:35:49.779Z,17.75
2023-02-28T20:38:16.590Z,16.73
2023-02-28T20:40:43.509Z,16.38
2023-02-28T20:43:10.331Z,14.68
2023-02-28T20:45:37.179Z,14.55
2023-02-28T20:48:04.201Z,12.77
2023-02-28T20:50:32.085Z,12.88
2023-02-28T20:52:58.942Z,11.88
2023-02-28T20:55:25.780Z,11.80
2023-02-28T20:57:54.156Z,12.13
2023-02-28T21:00:22.390Z,12.15
2023-02-28T21:02:49.340Z,10.20
2023-02-28T21:05:17.108Z,12.52
2023-02-28T21:07:44.024Z,10.73
2023-02-28T21:10:11.603Z,11.68
2023-02-28T21:12:38.523Z,11.52
2023-02-28T21:15:05.667Z,11.35
2023-02-28T21:17:32.431Z,11.05
2023-02-28T21:19:59.321Z,11.25
2023-02-28T21:22:26.183Z,11.13
2023-02-28T21:24:53.333Z,10.40
2023-02-28T21:27:20.263Z,10.55
2023-02-28T21:29:47.092Z,10.57
2023-02-28T21:32:14.851Z,11.30
2023-02-28T21:34:41.833Z,11.45
2023-02-28T21:37:08.685Z,11.13
2023-02-28T21:39:35.918Z,10.52
2023-02-28T21:42:04.050Z,11.75
2023-02-28T21:44:34.344Z,10.20
2023-02-28T21:47:01.989Z,11.50
2023-02-28T21:49:29.339Z,12.20
2023-02-28T21:51:56.676Z,10.85
2023-02-28T21:54:23.514Z,11.35
2023-02-28T21:56:53.635Z,11.57
2023-02-28T21:59:20.814Z,11.50
2023-02-28T22:01:51.246Z,11.50
2023-02-28T22:04:21.628Z,12.45
2023-02-28T22:06:50.875Z,13.48
2023-02-28T22:09:18.092Z,14.13
2023-02-28T22:11:45.168Z,14.38
2023-02-28T22:14:12.637Z,14.57
2023-02-28T22:16:51.191Z,15.68
2023-02-28T22:19:20.755Z,14.10
2023-02-28T22:21:47.839Z,13.73
2023-02-28T22:24:17.538Z,13.13
2023-02-28T22:26:44.839Z,14.25
2023-02-28T22:29:14.011Z,14.52
2023-02-28T22:31:40.894Z,14.18
2023-02-28T22:34:11.711Z,13.45
2023-02-28T22:36:40.128Z,13.65
2023-02-28T22:39:07.208Z,13.38
2023-02-28T22:41:34.156Z,14.23
2023-02-28T22:44:03.962Z,13.77
2023-02-28T22:46:35.798Z,13.93
2023-02-28T22:49:05.679Z,14.00
2023-02-28T22:51:33.091Z,12.70
2023-02-28T22:53:59.939Z,14.48
2023-02-28T22:56:29.268Z,13.07
2023-02-28T22:58:58.714Z,14.52
2023-02-28T23:01:28.317Z,14.15
2023-02-28T23:03:55.947Z,12.68
2023-02-28T23:06:49.202Z,13.68
2023-02-28T23:09:21.504Z,12.73
2023-02-28T23:11:58.386Z,13.15
2023-02-28T23:14:25.134Z,14.45
2023-02-28T23:16:57.688Z,13.80
2023-02-28T23:19:31.496Z,15.40
2023-02-28T23:22:01.865Z,15.02
2023-02-28T23:24:35.499Z,14.23
2023-02-28T23:27:09.819Z,13.95
2023-02-28T23:29:37.003Z,14.25
2023-02-28T23:32:04.421Z,14.60
2023-02-28T23:34:32.106Z,14.82
2023-02-28T23:37:00.573Z,13.52
2023-02-28T23:39:32.736Z,14.27
2023-02-28T23:42:00.242Z,14.95
2023-02-28T23:44:27.392Z,13.27
2023-02-28T23:46:54.412Z,13.77
2023-02-28T23:49:22.066Z,13.43
2023-02-28T23:51:50.868Z,14.30
2023-02-28T23:54:18.523Z,13.75
2023-02-28T23:56:45.743Z,14.20
2023-02-28T23:59:12.557Z,13.93
